Time;durP1;ratioP1;P1;durP2;ratioP2;P2;SDS_P1;SDS_P2;PMS_P1;PMS_P2;Temp;Humidity;BMP_temperature;BMP_pressure;BME280_temperature;BME280_humidity;BME280_pressure;Samples;Min_cycle;Max_cycle;Signal;HPM_P1;HPM_P2
2020/12/08 00:02:13;;;;;;;10.43;5.13;;;2.60;84.00;;;;;;5053859;28;20054;-80
2020/12/08 00:04:40;;;;;;;7.27;4.67;;;2.60;83.90;;;;;;5053412;28;20182;-82
2020/12/08 00:07:07;;;;;;;9.50;5.30;;;2.50;83.70;;;;;;5054520;28;20082;-82
2020/12/08 00:09:32;;;;;;;8.70;4.70;;;2.40;84.00;;;;;;5053386;28;20477;-82
2020/12/08 00:11:58;;;;;;;10.47;4.90;;;2.50;84.30;;;;;;5053427;28;20048;-81
2020/12/08 00:14:24;;;;;;;10.83;4.90;;;2.50;84.40;;;;;;5054826;28;20032;-81
2020/12/08 00:16:49;;;;;;;11.07;5.33;;;2.50;84.10;;;;;;5053280;28;20119;-81
2020/12/08 00:19:15;;;;;;;10.07;5.50;;;2.60;84.00;;;;;;5054981;28;20500;-81
2020/12/08 00:21:45;;;;;;;13.10;5.10;;;2.60;83.80;;;;;;5053509;28;20117;-82
2020/12/08 00:24:12;;;;;;;12.53;6.07;;;2.60;83.40;;;;;;5053975;28;20048;-80
2020/12/08 00:26:39;;;;;;;11.67;5.37;;;2.50;83.50;;;;;;5053175;28;20045;-81
2020/12/08 00:29:06;;;;;;;12.50;6.30;;;2.50;83.50;;;;;;5063968;28;20091;-81
2020/12/08 00:31:32;;;;;;;13.93;6.47;;;2.40;83.60;;;;;;5074388;28;20027;-84
2020/12/08 00:33:58;;;;;;;12.47;6.40;;;2.40;83.60;;;;;;5057106;28;20032;-81
2020/12/08 00:36:24;;;;;;;13.77;6.43;;;2.40;83.90;;;;;;5056601;28;20039;-81
2020/12/08 00:38:50;;;;;;;12.37;6.43;;;2.30;84.00;;;;;;5073598;28;20021;-81
2020/12/08 00:41:23;;;;;;;14.27;6.80;;;2.40;84.40;;;;;;5056978;28;20488;-81
2020/12/08 00:43:50;;;;;;;18.97;7.17;;;2.40;84.30;;;;;;5073790;28;20032;-81
2020/12/08 00:46:17;;;;;;;14.53;7.03;;;2.30;84.40;;;;;;5056386;28;20132;-81
2020/12/08 00:48:43;;;;;;;17.63;6.93;;;2.30;84.60;;;;;;5055971;28;20025;-81
2020/12/08 00:51:09;;;;;;;16.00;6.97;;;2.30;84.80;;;;;;5056287;28;20031;-81
2020/12/08 00:53:35;;;;;;;14.20;7.27;;;2.30;84.60;;;;;;5056422;28;20063;-83
2020/12/08 00:56:09;;;;;;;15.87;7.57;;;2.20;84.90;;;;;;5056172;28;20083;-80
2020/12/08 00:58:34;;;;;;;19.13;7.87;;;2.30;85.20;;;;;;5056351;28;20035;-83
2020/12/08 01:01:00;;;;;;;16.87;8.07;;;2.30;85.00;;;;;;5056104;28;20020;-81
2020/12/08 01:03:25;;;;;;;15.30;7.40;;;2.30;84.90;;;;;;5056051;28;20111;-81
2020/12/08 01:05:52;;;;;;;16.03;8.03;;;2.30;85.10;;;;;;5056195;28;20119;-82
2020/12/08 01:08:17;;;;;;;18.37;8.60;;;2.30;85.30;;;;;;5056414;28;20025;-81
2020/12/08 01:10:43;;;;;;;16.53;7.80;;;2.30;85.30;;;;;;5073184;28;20024;-82
2020/12/08 01:13:08;;;;;;;18.30;7.87;;;2.30;85.10;;;;;;5056311;28;20020;-81
2020/12/08 01:15:34;;;;;;;20.10;8.43;;;2.30;84.90;;;;;;5056270;28;20028;-81
2020/12/08 01:18:00;;;;;;;16.63;7.33;;;2.30;85.00;;;;;;5054624;28;20029;-81
2020/12/08 01:20:25;;;;;;;17.90;7.70;;;2.30;84.90;;;;;;5073770;28;20024;-82
2020/12/08 01:22:51;;;;;;;19.07;8.43;;;2.20;84.90;;;;;;5055477;28;20021;-81
2020/12/08 01:25:17;;;;;;;16.47;8.07;;;2.20;85.10;;;;;;5055151;28;20044;-80
2020/12/08 01:27:43;;;;;;;19.97;8.10;;;2.20;85.60;;;;;;5055043;28;20067;-82
2020/12/08 01:30:09;;;;;;;15.47;7.93;;;2.20;85.30;;;;;;5055384;28;20076;-82
2020/12/08 01:32:35;;;;;;;17.50;7.83;;;2.20;85.20;;;;;;5055808;28;20024;-81
2020/12/08 01:35:00;;;;;;;20.87;8.40;;;2.30;85.40;;;;;;5055405;28;20081;-82
2020/12/08 01:37:26;;;;;;;20.37;8.50;;;2.30;85.30;;;;;;5056552;28;20354;-80
2020/12/08 01:39:51;;;;;;;18.53;8.33;;;2.40;85.10;;;;;;5055971;28;20020;-82
2020/12/08 01:42:17;;;;;;;19.03;8.80;;;2.30;85.00;;;;;;5055963;28;20404;-82
2020/12/08 01:44:47;;;;;;;17.93;7.87;;;2.40;85.00;;;;;;5055314;28;20028;-82
2020/12/08 01:47:14;;;;;;;18.10;7.70;;;2.30;84.90;;;;;;5055338;28;20052;-82
2020/12/08 01:49:42;;;;;;;17.57;7.87;;;2.30;85.00;;;;;;5055449;28;20487;-83
2020/12/08 01:52:07;;;;;;;19.00;8.77;;;2.30;85.00;;;;;;5072968;28;20493;-81
2020/12/08 01:54:33;;;;;;;17.83;7.93;;;2.30;84.90;;;;;;5055767;28;20116;-82
2020/12/08 01:56:59;;;;;;;15.93;7.87;;;2.30;85.00;;;;;;5055281;28;20061;-82
2020/12/08 01:59:24;;;;;;;23.03;9.20;;;2.30;85.00;;;;;;5055856;28;20473;-81
2020/12/08 02:01:50;;;;;;;18.27;8.90;;;2.30;85.20;;;;;;5055172;28;20025;-82
2020/12/08 02:04:16;;;;;;;17.40;7.87;;;2.30;85.10;;;;;;5073556;28;20032;-80
2020/12/08 02:06:41;;;;;;;20.37;8.90;;;2.30;85.10;;;;;;5055184;28;20358;-83
2020/12/08 02:09:07;;;;;;;17.90;8.63;;;2.40;85.00;;;;;;5055318;28;20055;-81
2020/12/08 02:11:33;;;;;;;20.23;8.77;;;2.30;84.80;;;;;;5055526;28;20119;-81
2020/12/08 02:13:59;;;;;;;18.70;8.23;;;2.40;85.00;;;;;;5054339;28;20607;-81
2020/12/08 02:16:24;;;;;;;16.87;8.07;;;2.40;84.90;;;;;;5055830;28;20039;-81
2020/12/08 02:18:52;;;;;;;18.07;8.67;;;2.30;84.90;;;;;;5055139;28;20377;-82
2020/12/08 02:21:18;;;;;;;18.70;9.23;;;2.40;84.90;;;;;;5055661;28;20181;-82
2020/12/08 02:23:52;;;;;;;21.20;8.77;;;2.30;85.00;;;;;;5055376;28;20520;-82
2020/12/08 02:26:20;;;;;;;19.07;8.47;;;2.30;85.10;;;;;;5050688;28;20075;-81
2020/12/08 02:28:45;;;;;;;18.80;8.83;;;2.30;85.00;;;;;;5054902;28;20057;-82
2020/12/08 02:31:11;;;;;;;20.63;8.80;;;2.30;85.00;;;;;;5059305;28;20031;-81
2020/12/08 02:33:36;;;;;;;19.20;8.70;;;2.30;85.00;;;;;;5059348;28;20539;-81
2020/12/08 02:36:02;;;;;;;19.03;8.53;;;2.30;85.30;;;;;;5058778;28;20572;-81
2020/12/08 02:38:28;;;;;;;20.80;9.23;;;2.30;85.50;;;;;;5059441;28;20469;-81
2020/12/08 02:40:54;;;;;;;17.43;8.63;;;2.30;85.40;;;;;;5058904;28;20025;-81
2020/12/08 02:43:21;;;;;;;19.73;8.33;;;2.40;85.50;;;;;;5059232;28;20025;-81
2020/12/08 02:45:47;;;;;;;18.07;8.70;;;2.40;85.40;;;;;;5058629;28;20055;-81
2020/12/08 02:48:14;;;;;;;17.53;8.70;;;2.40;85.30;;;;;;5059342;28;20465;-81
2020/12/08 02:50:40;;;;;;;17.53;9.50;;;2.40;85.60;;;;;;5059122;28;20021;-81
2020/12/08 02:53:06;;;;;;;16.73;8.40;;;2.40;85.70;;;;;;5058531;28;20028;-81
2020/12/08 02:55:32;;;;;;;19.20;9.40;;;2.40;85.80;;;;;;5058830;28;20036;-82
2020/12/08 02:57:57;;;;;;;18.33;9.07;;;2.40;85.60;;;;;;5058196;28;20033;-81
2020/12/08 03:00:24;;;;;;;18.33;8.53;;;2.40;85.60;;;;;;5058641;28;20480;-82
2020/12/08 03:02:50;;;;;;;17.93;8.83;;;2.40;85.90;;;;;;5058181;28;20028;-81
2020/12/08 03:05:15;;;;;;;17.43;8.40;;;2.50;86.00;;;;;;5058642;28;20029;-82
2020/12/08 03:07:41;;;;;;;20.23;9.70;;;2.60;85.90;;;;;;5058805;28;20028;-82
2020/12/08 03:10:07;;;;;;;17.23;8.70;;;2.60;85.70;;;;;;5058532;28;20444;-82
2020/12/08 03:12:37;;;;;;;15.83;8.23;;;2.60;85.50;;;;;;5058760;28;20078;-81
2020/12/08 03:15:05;;;;;;;18.23;9.57;;;2.60;86.10;;;;;;5058225;28;20499;-82
2020/12/08 03:17:32;;;;;;;16.43;8.53;;;2.60;85.50;;;;;;5058589;28;20029;-82
2020/12/08 03:19:57;;;;;;;16.93;8.97;;;2.70;85.50;;;;;;5075757;28;20020;-80
2020/12/08 03:22:23;;;;;;;17.60;9.00;;;2.60;85.30;;;;;;5057610;28;20021;-82
2020/12/08 03:24:49;;;;;;;17.73;8.40;;;2.70;85.50;;;;;;5057283;28;20028;-82
2020/12/08 03:27:16;;;;;;;18.30;8.23;;;2.70;85.40;;;;;;5058201;28;20032;-82
2020/12/08 03:29:42;;;;;;;18.40;8.67;;;2.70;85.40;;;;;;5057960;28;20044;-81
2020/12/08 03:32:07;;;;;;;17.80;8.43;;;2.70;85.40;;;;;;5075495;28;20070;-81
2020/12/08 03:34:33;;;;;;;14.20;8.30;;;2.70;85.30;;;;;;5057401;28;20115;-82
2020/12/08 03:36:59;;;;;;;18.77;9.30;;;2.70;85.50;;;;;;5075434;28;20469;-82
2020/12/08 03:39:24;;;;;;;16.70;8.33;;;2.70;85.40;;;;;;5057483;28;20056;-81
2020/12/08 03:41:50;;;;;;;16.57;8.50;;;2.70;85.20;;;;;;5074664;28;20025;-82
2020/12/08 03:44:16;;;;;;;18.10;8.90;;;2.70;85.20;;;;;;5057687;28;20046;-82
2020/12/08 03:46:41;;;;;;;17.70;8.47;;;2.70;85.20;;;;;;5057830;28;20153;-82
2020/12/08 03:49:07;;;;;;;16.43;7.93;;;2.70;85.40;;;;;;5074965;28;20036;-82
2020/12/08 03:51:32;;;;;;;19.37;8.23;;;2.80;85.30;;;;;;5075098;28;20025;-82
2020/12/08 03:53:58;;;;;;;16.50;7.80;;;2.70;85.40;;;;;;5056265;28;20489;-82
2020/12/08 03:56:24;;;;;;;18.77;9.17;;;2.70;85.40;;;;;;5075288;28;20111;-82
2020/12/08 03:58:50;;;;;;;18.97;8.77;;;2.80;85.30;;;;;;5056751;28;20453;-83
2020/12/08 04:01:21;;;;;;;18.30;9.00;;;2.70;85.20;;;;;;5057321;28;20024;-82
2020/12/08 04:03:48;;;;;;;15.80;8.23;;;2.70;85.00;;;;;;5056929;28;20090;-84
2020/12/08 04:06:14;;;;;;;14.60;7.60;;;2.70;84.80;;;;;;5057563;28;20385;-82
2020/12/08 04:08:45;;;;;;;15.73;8.10;;;2.70;85.20;;;;;;5057529;28;20043;-82
2020/12/08 04:11:11;;;;;;;16.50;8.10;;;2.70;85.10;;;;;;5056793;28;20025;-82
2020/12/08 04:13:37;;;;;;;18.03;8.77;;;2.70;85.30;;;;;;5056934;28;20025;-82
2020/12/08 04:16:03;;;;;;;15.87;7.93;;;2.60;85.20;;;;;;5056512;28;20564;-82
2020/12/08 04:18:29;;;;;;;14.67;7.70;;;2.60;85.60;;;;;;5057130;28;20021;-82
2020/12/08 04:20:54;;;;;;;15.23;7.70;;;2.60;85.80;;;;;;5074165;28;20025;-82
2020/12/08 04:23:22;;;;;;;16.73;8.60;;;2.70;85.70;;;;;;5057319;28;20021;-82
2020/12/08 04:25:48;;;;;;;16.27;8.63;;;2.70;85.80;;;;;;5056322;28;20052;-83
2020/12/08 04:28:14;;;;;;;17.87;8.27;;;2.80;85.70;;;;;;5074371;28;20033;-82
2020/12/08 04:30:40;;;;;;;19.93;9.17;;;2.90;85.60;;;;;;5073997;28;20028;-82
2020/12/08 04:33:06;;;;;;;20.10;9.37;;;2.90;85.30;;;;;;5056193;28;20033;-82
2020/12/08 04:35:31;;;;;;;18.53;9.40;;;2.90;85.10;;;;;;5056473;28;20032;-82
2020/12/08 04:37:57;;;;;;;19.97;9.10;;;2.90;85.40;;;;;;5055978;28;20031;-82
2020/12/08 04:40:24;;;;;;;18.03;8.47;;;2.90;85.30;;;;;;5056475;28;20036;-83
2020/12/08 04:42:54;;;;;;;16.10;9.37;;;2.90;85.50;;;;;;5056110;28;20032;-82
2020/12/08 04:45:20;;;;;;;17.00;8.37;;;3.00;85.30;;;;;;5056451;28;20033;-82
2020/12/08 04:47:46;;;;;;;17.43;9.00;;;3.00;85.20;;;;;;5074096;28;20063;-82
2020/12/08 04:50:15;;;;;;;19.10;8.60;;;3.00;84.90;;;;;;5055960;28;20055;-81
2020/12/08 04:52:41;;;;;;;19.60;9.00;;;3.10;85.10;;;;;;5055852;28;20028;-82
2020/12/08 04:55:07;;;;;;;19.90;9.30;;;3.10;84.90;;;;;;5073992;28;20025;-82
2020/12/08 04:57:33;;;;;;;17.53;8.77;;;3.10;84.60;;;;;;5056815;28;20466;-82
2020/12/08 05:00:10;;;;;;;21.03;9.40;;;3.10;84.40;;;;;;5056035;28;20021;-82
2020/12/08 05:02:52;;;;;;;19.17;8.97;;;3.10;84.50;;;;;;5056757;28;20031;-82
2020/12/08 05:05:18;;;;;;;19.25;9.38;;;3.20;84.70;;;;;;5056785;28;20115;-82
2020/12/08 05:07:45;;;;;;;20.67;9.63;;;3.20;84.70;;;;;;5056392;28;20039;-82
2020/12/08 05:10:12;;;;;;;18.07;8.80;;;3.10;84.40;;;;;;5055645;28;20174;-81
2020/12/08 05:12:38;;;;;;;20.67;9.23;;;3.20;84.70;;;;;;5056263;28;20024;-82
2020/12/08 05:15:04;;;;;;;17.20;8.57;;;3.20;84.70;;;;;;5073721;28;20036;-82
2020/12/08 05:17:31;;;;;;;17.93;8.67;;;3.20;84.80;;;;;;5056078;28;20461;-82
2020/12/08 05:20:05;;;;;;;20.73;9.83;;;3.20;84.70;;;;;;5073241;28;20029;-82
2020/12/08 05:22:32;;;;;;;18.37;9.13;;;3.20;84.70;;;;;;5056830;28;20024;-82
2020/12/08 05:25:16;;;;;;;20.13;9.50;;;3.20;84.70;;;;;;5055531;28;20116;-82
2020/12/08 05:28:00;;;;;;;18.83;8.67;;;3.30;84.60;;;;;;5051515;28;20082;-82
2020/12/08 05:30:27;;;;;;;20.70;10.00;;;3.20;84.50;;;;;;5055901;28;20049;-82
2020/12/08 05:32:53;;;;;;;17.07;8.53;;;3.30;84.30;;;;;;5055662;28;20028;-82
2020/12/08 05:35:24;;;;;;;17.67;8.77;;;3.30;84.40;;;;;;5056168;28;20032;-82
2020/12/08 05:37:53;;;;;;;18.30;9.10;;;3.30;84.40;;;;;;5055639;28;20024;-82
2020/12/08 05:40:24;;;;;;;19.80;9.13;;;3.30;84.00;;;;;;5056095;28;20094;-82
2020/12/08 05:42:52;;;;;;;20.80;9.65;;;3.30;84.20;;;;;;5069444;28;20029;-82
2020/12/08 05:45:20;;;;;;;19.87;10.13;;;3.30;84.20;;;;;;5055754;28;20139;-82
2020/12/08 05:47:57;;;;;;;19.53;9.53;;;3.30;84.00;;;;;;5056118;28;20500;-82
2020/12/08 05:50:25;;;;;;;20.33;9.80;;;3.30;83.90;;;;;;5056368;28;20074;-82
2020/12/08 05:52:56;;;;;;;19.47;9.90;;;3.30;83.90;;;;;;5056171;28;20056;-82
2020/12/08 05:55:24;;;;;;;24.40;11.20;;;3.30;83.90;;;;;;5056057;28;20032;-81
2020/12/08 05:57:51;;;;;;;24.20;10.77;;;3.30;84.00;;;;;;5056106;28;20448;-82
2020/12/08 06:00:27;;;;;;;23.80;11.03;;;3.30;84.00;;;;;;5055533;28;20029;-82
2020/12/08 06:02:55;;;;;;;21.37;10.20;;;3.30;84.30;;;;;;5073593;28;20024;-83
2020/12/08 06:05:29;;;;;;;21.00;10.10;;;3.30;84.30;;;;;;5058128;28;20496;-82
2020/12/08 06:07:55;;;;;;;22.10;10.40;;;3.30;84.00;;;;;;5076327;28;20028;-83
2020/12/08 06:10:21;;;;;;;24.10;10.47;;;3.30;83.90;;;;;;5077457;28;20029;-81
2020/12/08 06:13:00;;;;;;;21.20;10.47;;;3.30;83.70;;;;;;5059383;28;20363;-81
2020/12/08 06:15:36;;;;;;;22.27;11.17;;;3.30;84.00;;;;;;5077596;28;20028;-81
2020/12/08 06:18:02;;;;;;;22.33;10.77;;;3.30;84.00;;;;;;5058781;28;20027;-80
2020/12/08 06:20:27;;;;;;;22.30;10.83;;;3.30;84.00;;;;;;5059453;28;20029;-81
2020/12/08 06:22:57;;;;;;;20.70;10.17;;;3.30;84.00;;;;;;5059244;28;20025;-83
2020/12/08 06:25:23;;;;;;;20.83;10.43;;;3.30;84.10;;;;;;5076991;28;20048;-81
2020/12/08 06:27:50;;;;;;;22.33;10.97;;;3.20;84.20;;;;;;5059101;28;20028;-81
2020/12/08 06:30:21;;;;;;;24.03;11.67;;;3.20;84.30;;;;;;5076698;28;20049;-81
2020/12/08 06:32:48;;;;;;;22.35;10.30;;;3.20;84.30;;;;;;5059469;28;20032;-80
2020/12/08 06:35:15;;;;;;;23.13;10.93;;;3.10;84.20;;;;;;5058696;28;20036;-81
2020/12/08 06:37:50;;;;;;;24.07;10.43;;;3.20;84.50;;;;;;5076365;28;20029;-81
2020/12/08 06:40:18;;;;;;;22.93;11.23;;;3.20;84.60;;;;;;5058573;28;20024;-81
2020/12/08 06:42:46;;;;;;;20.67;10.83;;;3.20;84.50;;;;;;5058896;28;20078;-81
2020/12/08 06:45:17;;;;;;;23.77;10.77;;;3.10;84.40;;;;;;5058416;28;20032;-81
2020/12/08 06:47:44;;;;;;;23.40;11.30;;;3.10;84.60;;;;;;5076798;28;20025;-81
2020/12/08 06:50:39;;;;;;;22.83;10.90;;;3.10;84.70;;;;;;5076181;28;20116;-81
2020/12/08 06:53:05;;;;;;;23.10;11.07;;;3.10;84.70;;;;;;5041206;28;20051;-81
2020/12/08 06:55:48;;;;;;;25.67;11.53;;;3.00;84.70;;;;;;5059007;28;20460;-80
2020/12/08 06:58:15;;;;;;;23.63;10.73;;;3.00;85.00;;;;;;5076415;28;20021;-80
2020/12/08 07:00:41;;;;;;;23.10;11.57;;;2.90;85.00;;;;;;5058729;28;20081;-81
2020/12/08 07:03:07;;;;;;;24.97;11.67;;;2.90;85.80;;;;;;5058222;28;20055;-81
2020/12/08 07:05:34;;;;;;;22.37;10.70;;;2.90;85.40;;;;;;5058564;28;20032;-81
2020/12/08 07:08:05;;;;;;;24.17;11.10;;;3.00;85.30;;;;;;5058142;28;20384;-81
2020/12/08 07:10:35;;;;;;;24.67;10.73;;;3.00;85.20;;;;;;5076318;28;20021;-81
2020/12/08 07:13:00;;;;;;;23.33;11.03;;;3.00;85.10;;;;;;5075686;28;20025;-81
2020/12/08 07:15:27;;;;;;;26.83;10.57;;;3.10;85.90;;;;;;5075617;28;20032;-80
2020/12/08 07:18:04;;;;;;;25.03;12.23;;;3.00;85.10;;;;;;5058002;28;20036;-80
2020/12/08 07:20:30;;;;;;;24.60;12.07;;;3.00;85.20;;;;;;5076544;28;20035;-81
2020/12/08 07:23:00;;;;;;;25.87;11.60;;;3.00;85.30;;;;;;5058648;28;20051;-80
2020/12/08 07:25:25;;;;;;;26.03;11.00;;;3.10;85.30;;;;;;5075734;28;20473;-81
2020/12/08 07:27:54;;;;;;;23.80;11.03;;;3.10;85.30;;;;;;5058314;28;20035;-80
2020/12/08 07:30:26;;;;;;;25.43;11.50;;;3.10;85.20;;;;;;5075363;28;20107;-81
2020/12/08 07:32:52;;;;;;;;;;;3.10;85.30;;;;;;5058720;28;20123;-81
2020/12/08 07:35:19;;;;;;;24.13;10.67;;;3.10;85.10;;;;;;5057738;28;19952;-81
2020/12/08 07:37:46;;;;;;;25.00;11.37;;;3.00;85.30;;;;;;5075810;28;20031;-82
2020/12/08 07:40:12;;;;;;;26.30;11.63;;;3.10;85.00;;;;;;5057546;28;20029;-81
2020/12/08 07:42:44;;;;;;;26.57;11.70;;;3.10;85.00;;;;;;5058230;28;20025;-81
2020/12/08 07:45:10;;;;;;;26.40;11.97;;;3.20;84.90;;;;;;5075380;28;20039;-81
2020/12/08 07:47:36;;;;;;;29.17;12.70;;;3.20;84.70;;;;;;5057964;28;20028;-81
2020/12/08 07:50:03;;;;;;;27.93;12.37;;;3.20;84.60;;;;;;5057528;28;20028;-82
2020/12/08 07:52:29;;;;;;;25.50;12.37;;;3.30;84.60;;;;;;5058101;28;20039;-82
2020/12/08 07:54:55;;;;;;;23.93;12.33;;;3.30;84.30;;;;;;5057896;28;20029;-82
2020/12/08 07:57:20;;;;;;;27.13;12.00;;;3.30;84.60;;;;;;5057364;28;20120;-81
2020/12/08 07:59:46;;;;;;;24.03;10.97;;;3.30;84.30;;;;;;5057808;28;20461;-81
2020/12/08 08:02:12;;;;;;;25.87;11.80;;;3.30;84.10;;;;;;5057334;28;20024;-81
2020/12/08 08:04:37;;;;;;;24.87;11.67;;;3.40;84.20;;;;;;5057387;28;20032;-81
2020/12/08 08:07:03;;;;;;;25.87;11.90;;;3.40;84.10;;;;;;5057085;28;20033;-82
2020/12/08 08:09:29;;;;;;;26.50;11.80;;;3.30;84.00;;;;;;5057710;28;20044;-81
2020/12/08 08:11:54;;;;;;;23.40;11.53;;;3.30;84.00;;;;;;5057489;28;20046;-81
2020/12/08 08:14:20;;;;;;;27.83;11.87;;;3.30;84.10;;;;;;5056823;28;20078;-81
2020/12/08 08:16:48;;;;;;;27.67;12.33;;;3.30;83.90;;;;;;5057303;28;20035;-81
2020/12/08 08:19:14;;;;;;;25.47;12.27;;;3.20;84.10;;;;;;5056779;28;20032;-81
2020/12/08 08:21:44;;;;;;;25.37;11.90;;;3.30;84.30;;;;;;5057334;28;20024;-80
2020/12/08 08:24:10;;;;;;;27.33;12.57;;;3.30;84.40;;;;;;5056704;28;20077;-81
2020/12/08 08:26:40;;;;;;;28.70;11.93;;;3.30;84.20;;;;;;5056711;28;20124;-81
2020/12/08 08:29:07;;;;;;;25.60;11.40;;;3.30;84.00;;;;;;5074222;28;20044;-82
2020/12/08 08:31:33;;;;;;;24.77;11.57;;;3.30;84.00;;;;;;5056945;28;20064;-81
2020/12/08 08:33:58;;;;;;;25.57;11.60;;;3.30;84.10;;;;;;5056990;28;20082;-81
2020/12/08 08:36:24;;;;;;;25.93;11.30;;;3.30;84.40;;;;;;5056541;28;20111;-81
2020/12/08 08:38:50;;;;;;;26.33;12.43;;;3.30;84.00;;;;;;5056898;28;20033;-81
2020/12/08 08:41:15;;;;;;;24.77;11.57;;;3.30;84.20;;;;;;5074102;28;20488;-81
2020/12/08 08:43:41;;;;;;;28.23;12.93;;;3.30;84.10;;;;;;5056810;28;20036;-81
2020/12/08 08:46:07;;;;;;;27.63;12.33;;;3.30;84.00;;;;;;5056643;28;20453;-81
2020/12/08 08:48:32;;;;;;;26.10;12.03;;;3.30;83.80;;;;;;5074392;28;20449;-81
2020/12/08 08:50:58;;;;;;;26.90;12.33;;;3.30;83.80;;;;;;5074121;28;20025;-81
2020/12/08 08:53:23;;;;;;;26.10;12.00;;;3.30;83.50;;;;;;5056018;28;20070;-82
2020/12/08 08:55:49;;;;;;;25.40;11.63;;;3.30;83.80;;;;;;5056556;28;20033;-81
2020/12/08 08:58:15;;;;;;;25.77;11.23;;;3.40;83.80;;;;;;5056253;28;20040;-81
2020/12/08 09:00:41;;;;;;;24.17;11.00;;;3.50;83.60;;;;;;5056743;28;20083;-81
2020/12/08 09:03:08;;;;;;;22.60;10.63;;;3.50;83.40;;;;;;5073657;28;20046;-81
2020/12/08 09:05:34;;;;;;;26.03;12.03;;;3.50;83.30;;;;;;5056493;28;20028;-81
2020/12/08 09:08:00;;;;;;;26.10;11.67;;;3.50;83.20;;;;;;5056393;28;20043;-80
2020/12/08 09:10:26;;;;;;;26.33;11.87;;;3.60;83.20;;;;;;5056115;28;20036;-81
2020/12/08 09:12:52;;;;;;;26.67;12.97;;;3.60;83.50;;;;;;5073800;28;20074;-81
2020/12/08 09:15:18;;;;;;;26.67;11.67;;;3.60;83.10;;;;;;5055543;28;20032;-81
2020/12/08 09:17:44;;;;;;;26.30;12.23;;;3.60;82.80;;;;;;5055615;28;20469;-81
2020/12/08 09:20:09;;;;;;;28.67;12.50;;;3.60;82.70;;;;;;5073453;28;20107;-81
2020/12/08 09:22:35;;;;;;;28.00;12.03;;;3.70;83.10;;;;;;5056276;28;20427;-81
2020/12/08 09:25:01;;;;;;;24.47;11.83;;;3.70;83.20;;;;;;5056154;28;20119;-81
2020/12/08 09:27:27;;;;;;;26.27;12.10;;;3.80;83.20;;;;;;5056025;28;20037;-81
2020/12/08 09:29:52;;;;;;;27.70;12.90;;;3.80;82.40;;;;;;5056050;28;20056;-82
2020/12/08 09:32:19;;;;;;;27.00;12.40;;;3.80;82.20;;;;;;5073309;28;20029;-82
2020/12/08 09:34:44;;;;;;;27.33;12.03;;;3.80;82.40;;;;;;5056473;28;20024;-81
2020/12/08 09:37:10;;;;;;;25.63;11.87;;;3.80;82.80;;;;;;5055751;28;20024;-82
2020/12/08 09:39:37;;;;;;;25.17;11.70;;;3.90;82.90;;;;;;5073240;28;20564;-80
2020/12/08 09:42:03;;;;;;;24.10;11.30;;;3.90;82.50;;;;;;5056062;28;20025;-81
2020/12/08 09:44:29;;;;;;;23.90;11.80;;;4.00;82.50;;;;;;5055443;28;20480;-81
2020/12/08 09:46:55;;;;;;;25.63;11.93;;;4.10;82.30;;;;;;5055916;28;20033;-81
2020/12/08 09:49:21;;;;;;;25.43;12.03;;;4.10;82.30;;;;;;5055683;28;20056;-82
2020/12/08 09:51:47;;;;;;;27.43;12.57;;;4.20;82.40;;;;;;5056013;28;20033;-82
2020/12/08 09:54:13;;;;;;;28.20;13.33;;;4.20;82.20;;;;;;5055540;28;20029;-82
2020/12/08 09:56:39;;;;;;;27.27;12.83;;;4.20;82.40;;;;;;5055614;28;20040;-81
2020/12/08 09:59:04;;;;;;;26.10;12.17;;;4.30;82.00;;;;;;5055231;28;20060;-81
2020/12/08 10:01:34;;;;;;;25.90;12.10;;;4.20;81.70;;;;;;5055271;28;20028;-81
2020/12/08 10:04:01;;;;;;;23.43;11.77;;;4.20;82.00;;;;;;5055607;28;20461;-80
2020/12/08 10:06:28;;;;;;;28.63;12.93;;;4.20;81.60;;;;;;5055242;28;20099;-82
2020/12/08 10:08:54;;;;;;;26.43;12.47;;;4.20;81.80;;;;;;5055691;28;20124;-81
2020/12/08 10:11:21;;;;;;;25.50;11.20;;;4.20;81.00;;;;;;5073216;28;20036;-82
2020/12/08 10:13:48;;;;;;;25.67;11.77;;;4.20;81.40;;;;;;5055767;28;20052;-83
2020/12/08 10:16:18;;;;;;;27.50;12.30;;;4.20;81.60;;;;;;5057385;28;20115;-82
2020/12/08 10:18:44;;;;;;;26.17;12.07;;;4.20;81.90;;;;;;5057688;28;20024;-82
2020/12/08 10:21:10;;;;;;;26.80;12.80;;;4.30;81.80;;;;;;5074492;28;20021;-84
2020/12/08 10:23:36;;;;;;;25.90;12.27;;;4.30;81.20;;;;;;5056752;28;20032;-82
2020/12/08 10:26:02;;;;;;;23.60;11.73;;;4.30;80.90;;;;;;5056657;28;20104;-82
2020/12/08 10:28:27;;;;;;;23.20;11.80;;;4.30;81.40;;;;;;5055307;28;20184;-81
2020/12/08 10:30:53;;;;;;;25.80;11.87;;;4.30;81.50;;;;;;5055539;28;20021;-82
2020/12/08 10:33:19;;;;;;;25.60;12.07;;;4.30;81.30;;;;;;5073069;28;20036;-82
2020/12/08 10:35:44;;;;;;;23.33;10.90;;;4.30;80.60;;;;;;5073983;28;20376;-81
2020/12/08 10:38:11;;;;;;;23.70;12.07;;;4.30;80.80;;;;;;5072802;28;20032;-82
2020/12/08 10:40:37;;;;;;;26.30;12.93;;;4.30;80.80;;;;;;5055375;28;20479;-81
2020/12/08 10:43:03;;;;;;;24.00;12.30;;;4.30;80.70;;;;;;5055404;28;20031;-81
2020/12/08 10:45:29;;;;;;;28.40;12.73;;;4.40;81.00;;;;;;5054953;28;20301;-81
2020/12/08 10:47:55;;;;;;;22.20;11.03;;;4.50;80.90;;;;;;5073174;28;20052;-80
2020/12/08 10:50:21;;;;;;;24.67;11.83;;;4.60;80.30;;;;;;5054761;28;20070;-82
2020/12/08 10:52:46;;;;;;;27.03;11.50;;;4.70;80.40;;;;;;5058345;28;20063;-81
2020/12/08 10:55:12;;;;;;;26.50;12.30;;;4.70;79.50;;;;;;5058023;28;20057;-82
2020/12/08 10:57:38;;;;;;;23.73;11.73;;;4.80;79.90;;;;;;5058808;28;20131;-81
2020/12/08 11:00:04;;;;;;;24.87;11.87;;;4.90;79.80;;;;;;5058844;28;20024;-81
2020/12/08 11:02:30;;;;;;;26.10;12.20;;;5.00;79.20;;;;;;5075836;28;20033;-80
2020/12/08 11:04:56;;;;;;;23.43;11.47;;;5.00;79.20;;;;;;5058571;28;20024;-81
2020/12/08 11:07:22;;;;;;;25.87;11.97;;;5.00;79.20;;;;;;5058056;28;20035;-80
2020/12/08 11:09:48;;;;;;;26.00;12.50;;;5.00;79.20;;;;;;5058535;28;20029;-80
2020/12/08 11:12:14;;;;;;;25.93;11.80;;;5.00;78.30;;;;;;5075829;28;20024;-81
2020/12/08 11:14:41;;;;;;;24.87;11.70;;;5.00;78.40;;;;;;5058233;28;20158;-81
2020/12/08 11:17:08;;;;;;;23.50;11.03;;;5.00;78.20;;;;;;5058390;28;20481;-82
2020/12/08 11:19:33;;;;;;;23.73;12.30;;;5.00;78.30;;;;;;5058193;28;20048;-81
2020/12/08 11:22:04;;;;;;;25.33;11.40;;;5.00;77.80;;;;;;5058673;28;20449;-81
2020/12/08 11:24:29;;;;;;;22.90;11.57;;;5.00;77.50;;;;;;5075897;28;20028;-81
2020/12/08 11:26:55;;;;;;;28.60;13.33;;;5.00;77.60;;;;;;5058150;28;20032;-81
2020/12/08 11:29:21;;;;;;;24.70;11.60;;;5.00;77.60;;;;;;5057258;28;20132;-81
2020/12/08 11:31:48;;;;;;;22.93;11.43;;;5.10;77.30;;;;;;5058351;28;20025;-81
2020/12/08 11:34:14;;;;;;;24.43;11.57;;;5.10;77.50;;;;;;5075277;28;20453;-82
2020/12/08 11:36:40;;;;;;;22.77;10.97;;;5.10;77.40;;;;;;5057836;28;20123;-82
2020/12/08 11:39:05;;;;;;;24.53;12.23;;;5.20;77.50;;;;;;5057940;28;20112;-81
2020/12/08 11:41:31;;;;;;;22.97;11.27;;;5.20;77.10;;;;;;5057503;28;20193;-81
2020/12/08 11:43:57;;;;;;;25.90;12.37;;;5.20;77.20;;;;;;5057890;28;20377;-80
2020/12/08 11:46:22;;;;;;;26.87;13.80;;;5.20;76.60;;;;;;5057237;28;20087;-82
2020/12/08 11:48:48;;;;;;;25.23;12.50;;;5.20;76.70;;;;;;5057911;28;20025;-80
2020/12/08 11:51:13;;;;;;;26.37;11.60;;;5.20;77.00;;;;;;5075004;28;20025;-82
2020/12/08 11:53:39;;;;;;;22.30;10.77;;;5.30;76.70;;;;;;5057744;28;20354;-81
2020/12/08 11:56:05;;;;;;;23.03;11.10;;;5.40;76.30;;;;;;5058649;28;20504;-81
2020/12/08 11:58:31;;;;;;;23.17;12.57;;;5.40;76.00;;;;;;5057039;28;20115;-81
2020/12/08 12:00:56;;;;;;;24.43;11.63;;;5.60;76.40;;;;;;5075262;28;20029;-81
2020/12/08 12:03:22;;;;;;;24.83;12.17;;;5.60;75.30;;;;;;5056788;28;20025;-81
2020/12/08 12:05:47;;;;;;;22.87;11.17;;;5.80;74.90;;;;;;5056821;28;20397;-80
2020/12/08 12:08:13;;;;;;;22.70;11.30;;;6.00;74.60;;;;;;5057361;28;20362;-82
2020/12/08 12:10:40;;;;;;;24.87;12.13;;;6.10;74.10;;;;;;5057521;28;20473;-81
2020/12/08 12:13:06;;;;;;;24.50;12.40;;;6.20;74.00;;;;;;5057532;28;20025;-81
2020/12/08 12:15:31;;;;;;;23.17;11.70;;;6.40;73.20;;;;;;5057004;28;20035;-82
2020/12/08 12:17:57;;;;;;;25.63;11.87;;;6.60;72.90;;;;;;5057395;28;20059;-82
2020/12/08 12:20:23;;;;;;;23.07;11.33;;;6.70;71.70;;;;;;5056852;28;20408;-82
2020/12/08 12:22:48;;;;;;;25.37;12.10;;;6.80;72.40;;;;;;5057273;28;20025;-82
2020/12/08 12:25:14;;;;;;;25.10;12.37;;;6.80;71.00;;;;;;5057380;28;20024;-82
2020/12/08 12:27:41;;;;;;;21.93;11.07;;;6.70;70.50;;;;;;5074830;28;20032;-82
2020/12/08 12:30:07;;;;;;;25.70;12.40;;;6.60;70.40;;;;;;5074817;28;20055;-81
2020/12/08 12:32:33;;;;;;;24.37;12.47;;;6.60;70.90;;;;;;5074458;28;20024;-83
2020/12/08 12:35:00;;;;;;;22.97;12.07;;;6.50;71.30;;;;;;5057371;28;20029;-81
2020/12/08 12:37:28;;;;;;;21.83;11.17;;;6.50;71.60;;;;;;5056582;28;20062;-82
2020/12/08 12:39:53;;;;;;;23.23;11.63;;;6.60;71.90;;;;;;5074725;28;20151;-81